< < Back
Terminal Aerodrome Forecast


Current Version              Previous Versions:   1  2  3  4  5  6  7  8  9  

Terminal Aerodrome Forecast

974
FTUS42 KGSP 021721
TAFGSP
TAF
KGSP 021721Z 0218/0318 35007KT P6SM FEW070
     FM030000 04003KT P6SM SCT080
     FM031500 14005KT P6SM SCT070=

Latest METAR

652
SAUS70 KWBC 031400 RRC
MTRGSP
METAR KGSP 031353Z 01003KT 10SM CLR 19/10 A3019 RMK AO2 SLP216
T01940100


USA.gov is the U.S. government's official web portal to all federal, state and local government web resources and services.